Gnv Atlas — IBUH — position and weather

sailwx.info

Track history (hours):
 
Tides and Currents Weather Stations Pressure Air Temp Water Temp Dewpoint Dewpoint Depression Visibility Wind Speed Wind Dir Waves Ship Positions

Gnv Atlas

Last reported at 2017-Nov-24 03:01 UTC. Time now 2017-Nov-24 03:56 UTC.
Position N 35°55' W 002°17'.

Length 162 m; draft 6.2 m.

Type: Passenger vessel. MMSI: 247163100.

Date/timePositionNaut miles runAvg speedWind from/ knotsBaromVisibWave heightAir tempDewpointWater temp
2017-Nov-24 03:01N 35°55' W 002°17'116.4
2017-Nov-24 02:57N 35°56' W 002°16'4816.7
2017-Nov-24 00:05N 36°33' W 001°38'216.8
2017-Nov-23 23:59N 36°34' W 001°36'1017.0
2017-Nov-23 23:24N 36°42' W 001°29'717.0
2017-Nov-23 23:00N 36°47' W 001°23'1417.1
2017-Nov-23 22:11N 36°58' W 001°13'1017.0
2017-Nov-23 21:35N 37°06' W 001°04'116.8
2017-Nov-23 21:30N 37°07' W 001°03'816.8
2017-Nov-23 21:00N 37°13' W 000°56'916.8
2017-Nov-23 20:29N 37°20' W 000°49'816.8
2017-Nov-23 20:00N 37°26' W 000°43'816.2
2017-Nov-23 19:30N 37°33' W 000°37'816.1
2017-Nov-23 19:00N 37°39' W 000°31'1316.0
2017-Nov-23 18:10N 37°50' W 000°21'315.9
2017-Nov-23 17:59N 37°52' W 000°19'815.7
2017-Nov-23 17:30N 37°59' W 000°14'815.8
2017-Nov-23 17:00N 38°05' W 000°09'815.6
2017-Nov-23 16:30N 38°12' W 000°04'815.8
2017-Nov-23 16:00N 38°19' E 000°02'815.9
2017-Nov-23 15:30N 38°25' E 000°08'815.7
2017-Nov-23 15:00N 38°32' E 000°13'1015.7
2017-Nov-23 14:23N 38°39' E 000°21'615.8
2017-Nov-23 14:00N 38°45' E 000°24'816.2
2017-Nov-23 13:30N 38°52' E 000°30'7616.7
2017-Nov-23 08:56N 39°53' E 001°28'  
2017-Nov-20 00:30N 37°26' W 000°46'918.7
2017-Nov-20 00:00N 37°32' W 000°36'918.4
2017-Nov-19 23:31N 37°39' W 000°29'2418.6
2017-Nov-19 22:12N 37°60' W 000°13'20418.4
2017-Nov-19 11:05N 40°58' E 001°57'519.4
2017-Nov-19 10:49N 41°02' E 001°60'225 4.5
2017-Nov-17 08:35N 37°45' W 000°20'115.0
2017-Nov-17 08:30N 37°44' W 000°21'816.8
2017-Nov-17 08:00N 37°37' W 000°27'816.8
2017-Nov-17 07:30N 37°31' W 000°34'1017.1
2017-Nov-17 06:56N 37°23' W 000°42'717.1
2017-Nov-17 06:30N 37°18' W 000°48'816.9
2017-Nov-17 06:00N 37°11' W 000°55'8 0.2
2017-Nov-15 21:22N 37°07' W 001°03'719.0
2017-Nov-15 21:00N 37°13' W 000°60'815.1
2017-Nov-15 20:30N 37°20' W 000°54'715.1
2017-Nov-15 20:01N 37°25' W 000°48'918.4
2017-Nov-15 19:31N 37°31' W 000°39'917.8
2017-Nov-15 19:00N 37°38' W 000°31'1218.4
2017-Nov-15 18:23N 37°48' W 000°24'1218.3
2017-Nov-15 17:45N 37°57' W 000°16'  
Track history (hours):
 
Tides and Currents Weather Stations Pressure Air Temp Water Temp Dewpoint Dewpoint Depression Visibility Wind Speed Wind Dir Waves Ship Positions

Gnv Atlas

Last reported at 2017-Nov-24 03:01 UTC. Time now 2017-Nov-24 03:56 UTC.
Position N 35°55' W 002°17'.

Length 162 m; draft 6.2 m.

Type: Passenger vessel. MMSI: 247163100.

Date/timePositionNaut miles runAvg speedWind from/ knotsBaromVisibWave heightAir tempDewpointWater temp
2017-Nov-24 03:01N 35°55' W 002°17'116.4
2017-Nov-24 02:57N 35°56' W 002°16'4816.7
2017-Nov-24 00:05N 36°33' W 001°38'216.8
2017-Nov-23 23:59N 36°34' W 001°36'1017.0
2017-Nov-23 23:24N 36°42' W 001°29'717.0
2017-Nov-23 23:00N 36°47' W 001°23'1417.1
2017-Nov-23 22:11N 36°58' W 001°13'1017.0
2017-Nov-23 21:35N 37°06' W 001°04'116.8
2017-Nov-23 21:30N 37°07' W 001°03'816.8
2017-Nov-23 21:00N 37°13' W 000°56'916.8
2017-Nov-23 20:29N 37°20' W 000°49'816.8
2017-Nov-23 20:00N 37°26' W 000°43'816.2
2017-Nov-23 19:30N 37°33' W 000°37'816.1
2017-Nov-23 19:00N 37°39' W 000°31'1316.0
2017-Nov-23 18:10N 37°50' W 000°21'315.9
2017-Nov-23 17:59N 37°52' W 000°19'815.7
2017-Nov-23 17:30N 37°59' W 000°14'815.8
2017-Nov-23 17:00N 38°05' W 000°09'815.6
2017-Nov-23 16:30N 38°12' W 000°04'815.8
2017-Nov-23 16:00N 38°19' E 000°02'815.9
2017-Nov-23 15:30N 38°25' E 000°08'815.7
2017-Nov-23 15:00N 38°32' E 000°13'1015.7
2017-Nov-23 14:23N 38°39' E 000°21'615.8
2017-Nov-23 14:00N 38°45' E 000°24'816.2
2017-Nov-23 13:30N 38°52' E 000°30'7616.7
2017-Nov-23 08:56N 39°53' E 001°28'  
2017-Nov-20 00:30N 37°26' W 000°46'918.7
2017-Nov-20 00:00N 37°32' W 000°36'918.4
2017-Nov-19 23:31N 37°39' W 000°29'2418.6
2017-Nov-19 22:12N 37°60' W 000°13'20418.4
2017-Nov-19 11:05N 40°58' E 001°57'519.4
2017-Nov-19 10:49N 41°02' E 001°60'225 4.5
2017-Nov-17 08:35N 37°45' W 000°20'115.0
2017-Nov-17 08:30N 37°44' W 000°21'816.8
2017-Nov-17 08:00N 37°37' W 000°27'816.8
2017-Nov-17 07:30N 37°31' W 000°34'1017.1
2017-Nov-17 06:56N 37°23' W 000°42'717.1
2017-Nov-17 06:30N 37°18' W 000°48'816.9
2017-Nov-17 06:00N 37°11' W 000°55'8 0.2
2017-Nov-15 21:22N 37°07' W 001°03'719.0
2017-Nov-15 21:00N 37°13' W 000°60'815.1
2017-Nov-15 20:30N 37°20' W 000°54'715.1
2017-Nov-15 20:01N 37°25' W 000°48'918.4
2017-Nov-15 19:31N 37°31' W 000°39'917.8
2017-Nov-15 19:00N 37°38' W 000°31'1218.4
2017-Nov-15 18:23N 37°48' W 000°24'1218.3
2017-Nov-15 17:45N 37°57' W 000°16'  

Dump ship's entire track history